createdAt,value
2022-10-05T00:00:39.822Z,11.41
2022-10-05T00:01:39.956Z,11.40
2022-10-05T00:02:46.074Z,11.36
2022-10-05T00:03:39.797Z,11.33
2022-10-05T00:04:39.860Z,11.33
2022-10-05T00:05:39.759Z,11.30
2022-10-05T00:06:39.813Z,11.32
2022-10-05T00:07:45.997Z,11.27
2022-10-05T00:08:39.739Z,11.27
2022-10-05T00:09:39.729Z,11.26
2022-10-05T00:10:39.697Z,11.22
2022-10-05T00:11:39.729Z,11.23
2022-10-05T00:12:45.937Z,11.25
2022-10-05T00:13:39.659Z,11.26
2022-10-05T00:14:39.678Z,11.25
2022-10-05T00:15:39.608Z,11.25
2022-10-05T00:16:40.670Z,11.23
2022-10-05T00:17:39.634Z,11.26
2022-10-05T00:18:45.867Z,11.26
2022-10-05T00:19:39.590Z,11.26
2022-10-05T00:20:39.637Z,11.26
2022-10-05T00:21:39.596Z,11.26
2022-10-05T00:22:39.608Z,11.27
2022-10-05T00:23:39.524Z,11.27
2022-10-05T00:24:45.881Z,11.27
2022-10-05T00:25:39.500Z,11.26
2022-10-05T00:26:39.534Z,11.26
2022-10-05T00:27:45.845Z,11.22
2022-10-05T00:28:39.462Z,11.18
2022-10-05T00:29:39.553Z,11.18
2022-10-05T00:30:46.087Z,11.19
2022-10-05T00:31:39.536Z,11.19
2022-10-05T00:32:40.474Z,11.19
2022-10-05T00:33:39.414Z,11.15
2022-10-05T00:34:39.426Z,11.14
2022-10-05T00:35:39.511Z,11.14
2022-10-05T00:36:46.030Z,11.14
2022-10-05T00:37:39.652Z,11.10
2022-10-05T00:38:39.335Z,11.08
2022-10-05T00:39:39.340Z,11.07
2022-10-05T00:40:39.341Z,11.07
2022-10-05T00:41:39.356Z,11.07
2022-10-05T00:42:49.323Z,11.07
2022-10-05T00:43:39.298Z,11.07
2022-10-05T00:44:39.314Z,11.05
2022-10-05T00:45:39.703Z,11.05
2022-10-05T00:46:45.821Z,11.05
2022-10-05T00:47:39.217Z,11.02
2022-10-05T00:48:45.523Z,11.00
2022-10-05T00:49:39.198Z,11.02
2022-10-05T00:50:39.246Z,10.99
2022-10-05T00:51:39.208Z,10.99
2022-10-05T00:52:39.201Z,11.00
2022-10-05T00:53:45.414Z,10.99
2022-10-05T00:54:39.130Z,11.02
2022-10-05T00:55:39.087Z,11.02
2022-10-05T00:56:39.163Z,11.04
2022-10-05T00:57:39.075Z,11.04
2022-10-05T00:58:45.400Z,11.04
2022-10-05T00:59:39.093Z,11.02
2022-10-05T01:00:39.054Z,11.02
2022-10-05T01:01:39.302Z,11.00
2022-10-05T01:02:39.067Z,11.02
2022-10-05T01:03:39.023Z,10.99
2022-10-05T01:04:45.486Z,10.99
2022-10-05T01:05:39.009Z,10.99
2022-10-05T01:06:39.017Z,10.99
2022-10-05T01:07:38.995Z,10.99
2022-10-05T01:08:38.948Z,10.99
2022-10-05T01:09:38.979Z,10.97
2022-10-05T01:10:45.213Z,10.96
2022-10-05T01:11:38.951Z,10.96
2022-10-05T01:12:38.976Z,10.94
2022-10-05T01:13:38.909Z,10.94
2022-10-05T01:14:38.884Z,10.93
2022-10-05T01:15:45.134Z,10.96
2022-10-05T01:16:38.942Z,10.94
2022-10-05T01:17:38.833Z,10.96
2022-10-05T01:18:40.009Z,10.96
2022-10-05T01:19:38.842Z,10.94
2022-10-05T01:20:45.148Z,10.93
2022-10-05T01:21:38.809Z,10.94
2022-10-05T01:22:38.777Z,10.94
2022-10-05T01:23:38.760Z,10.96
2022-10-05T01:24:38.753Z,10.96
2022-10-05T01:25:38.736Z,10.97
2022-10-05T01:26:45.337Z,10.97
2022-10-05T01:27:38.725Z,10.99
2022-10-05T01:28:38.796Z,10.99
2022-10-05T01:29:38.793Z,10.99
2022-10-05T01:30:39.410Z,11.00
2022-10-05T01:31:45.391Z,11.00
2022-10-05T01:32:38.699Z,11.00
2022-10-05T01:33:38.683Z,11.00
2022-10-05T01:34:38.684Z,10.99
2022-10-05T01:35:38.654Z,11.00
2022-10-05T01:36:45.470Z,11.00
2022-10-05T01:37:38.603Z,10.99
2022-10-05T01:38:38.616Z,10.97
2022-10-05T01:39:38.568Z,10.96
2022-10-05T01:40:38.591Z,10.94
2022-10-05T01:41:46.772Z,10.94
2022-10-05T01:42:38.651Z,10.93
2022-10-05T01:43:38.524Z,10.93
2022-10-05T01:44:38.505Z,10.90
2022-10-05T01:45:38.550Z,10.92
2022-10-05T01:46:45.079Z,10.87
2022-10-05T01:47:38.529Z,10.81
2022-10-05T01:48:38.488Z,10.81
2022-10-05T01:49:38.480Z,10.79
2022-10-05T01:50:38.426Z,10.78
2022-10-05T01:51:44.776Z,10.78
2022-10-05T01:52:39.054Z,10.81
2022-10-05T01:53:38.410Z,10.81
2022-10-05T01:54:38.372Z,10.79
2022-10-05T01:55:38.370Z,10.79
2022-10-05T01:56:38.415Z,10.76
2022-10-05T01:57:44.622Z,10.74
2022-10-05T01:58:38.345Z,10.75
2022-10-05T01:59:38.283Z,10.74
2022-10-05T02:00:38.296Z,10.71
2022-10-05T02:01:38.308Z,10.68
2022-10-05T02:02:42.285Z,10.63
2022-10-05T02:03:45.343Z,10.63
2022-10-05T02:05:40.235Z,10.60
2022-10-05T02:06:38.717Z,10.57
2022-10-05T02:07:38.242Z,10.56
2022-10-05T02:08:38.527Z,10.54
2022-10-05T02:09:45.382Z,10.56
2022-10-05T02:10:38.175Z,10.53
2022-10-05T02:11:38.361Z,10.51
2022-10-05T02:12:38.127Z,10.51
2022-10-05T02:13:42.197Z,10.49
2022-10-05T02:14:38.111Z,10.48
2022-10-05T02:15:44.436Z,10.48
2022-10-05T02:16:38.101Z,10.48
2022-10-05T02:17:38.120Z,10.46
2022-10-05T02:18:38.078Z,10.44
2022-10-05T02:19:38.104Z,10.42
2022-10-05T02:20:38.077Z,10.41
2022-10-05T02:21:44.372Z,10.41
2022-10-05T02:22:38.026Z,10.38
2022-10-05T02:23:38.023Z,10.38
2022-10-05T02:24:38.021Z,10.37
2022-10-05T02:25:38.031Z,10.38
2022-10-05T02:26:44.607Z,10.37
2022-10-05T02:27:37.946Z,10.37
2022-10-05T02:28:38.010Z,10.38
2022-10-05T02:29:38.383Z,10.34
2022-10-05T02:30:38.203Z,10.35
2022-10-05T02:31:38.062Z,10.34
2022-10-05T02:32:44.173Z,10.33
2022-10-05T02:33:37.882Z,10.31
2022-10-05T02:34:37.871Z,10.31
2022-10-05T02:35:37.937Z,10.31
2022-10-05T02:36:37.962Z,10.30
2022-10-05T02:37:37.864Z,10.28
2022-10-05T02:38:44.483Z,10.26
2022-10-05T02:39:37.817Z,10.26
2022-10-05T02:40:37.833Z,10.25
2022-10-05T02:41:37.817Z,10.23
2022-10-05T02:42:38.130Z,10.22
2022-10-05T02:43:41.660Z,10.20
2022-10-05T02:44:44.388Z,10.22
2022-10-05T02:45:37.769Z,10.20
2022-10-05T02:46:37.722Z,10.20
2022-10-05T02:47:37.715Z,10.17
2022-10-05T02:48:37.689Z,10.17
2022-10-05T02:49:37.709Z,10.16
2022-10-05T02:50:45.462Z,10.15
2022-10-05T02:51:37.683Z,10.13
2022-10-05T02:52:37.685Z,10.15
2022-10-05T02:53:37.617Z,10.15
2022-10-05T02:54:37.600Z,10.15
2022-10-05T02:55:44.210Z,10.15
2022-10-05T02:56:37.647Z,10.16
2022-10-05T02:57:37.565Z,10.16
2022-10-05T02:58:37.592Z,10.16
2022-10-05T02:59:37.557Z,10.15
2022-10-05T03:00:43.899Z,10.13
2022-10-05T03:01:37.754Z,10.12
2022-10-05T03:02:37.519Z,10.10
2022-10-05T03:03:39.408Z,10.09
2022-10-05T03:04:37.487Z,10.07
2022-10-05T03:05:37.488Z,10.09
2022-10-05T03:06:44.119Z,10.09
2022-10-05T03:07:37.443Z,10.09
2022-10-05T03:08:37.456Z,10.10
2022-10-05T03:09:37.432Z,10.10
2022-10-05T03:10:37.546Z,10.10
2022-10-05T03:11:44.914Z,10.13
2022-10-05T03:12:37.428Z,10.16
2022-10-05T03:13:37.384Z,10.17
2022-10-05T03:14:37.406Z,10.17
2022-10-05T03:15:38.162Z,10.17
2022-10-05T03:16:44.535Z,10.17
2022-10-05T03:17:37.357Z,10.20
2022-10-05T03:18:37.318Z,10.19
2022-10-05T03:19:37.284Z,10.19
2022-10-05T03:20:37.279Z,10.20
2022-10-05T03:21:37.315Z,10.20
2022-10-05T03:22:43.586Z,10.22
2022-10-05T03:23:37.242Z,10.22
2022-10-05T03:24:37.512Z,10.20
2022-10-05T03:25:37.326Z,10.22
2022-10-05T03:26:37.727Z,10.20
2022-10-05T03:27:37.300Z,10.22
2022-10-05T03:28:43.489Z,10.23
2022-10-05T03:29:37.161Z,10.23
2022-10-05T03:30:38.101Z,10.22
2022-10-05T03:31:37.203Z,10.23
2022-10-05T03:32:37.286Z,10.25
2022-10-05T03:33:43.494Z,10.26
2022-10-05T03:34:37.179Z,10.28
2022-10-05T03:35:37.186Z,10.30
2022-10-05T03:36:37.127Z,10.30
2022-10-05T03:37:37.109Z,10.31
2022-10-05T03:38:37.073Z,10.31
2022-10-05T03:39:43.381Z,10.31
2022-10-05T03:40:37.094Z,10.34
2022-10-05T03:41:37.079Z,10.35
2022-10-05T03:42:37.033Z,10.37
2022-10-05T03:43:38.871Z,10.40
2022-10-05T03:44:37.007Z,10.38
2022-10-05T03:45:43.276Z,10.40
2022-10-05T03:46:37.383Z,10.41
2022-10-05T03:47:36.962Z,10.41
2022-10-05T03:48:37.030Z,10.44
2022-10-05T03:49:36.921Z,10.42
2022-10-05T03:50:36.904Z,10.44
2022-10-05T03:51:43.217Z,10.41
2022-10-05T03:52:37.270Z,10.40
2022-10-05T03:53:37.020Z,10.38
2022-10-05T03:54:37.958Z,10.35
2022-10-05T03:55:37.041Z,10.37
2022-10-05T03:56:43.581Z,10.37
2022-10-05T03:57:36.947Z,10.37
2022-10-05T03:58:37.441Z,10.35
2022-10-05T03:59:38.104Z,10.35
2022-10-05T04:00:36.944Z,10.37
2022-10-05T04:01:43.398Z,10.35
2022-10-05T04:02:37.249Z,10.35
2022-10-05T04:03:37.758Z,10.35
2022-10-05T04:04:39.037Z,10.37
2022-10-05T04:05:37.515Z,10.35
2022-10-05T04:06:43.336Z,10.37
2022-10-05T04:07:36.795Z,10.37
2022-10-05T04:08:40.577Z,10.37
2022-10-05T04:09:39.834Z,10.40
2022-10-05T04:10:36.744Z,10.37
2022-10-05T04:11:43.057Z,10.40
2022-10-05T04:12:37.335Z,10.38
2022-10-05T04:13:36.804Z,10.38
2022-10-05T04:14:37.828Z,10.38
2022-10-05T04:15:36.764Z,10.38
2022-10-05T04:16:45.327Z,10.40
2022-10-05T04:17:36.888Z,10.38
2022-10-05T04:18:37.887Z,10.38
2022-10-05T04:19:40.298Z,10.37
2022-10-05T04:20:37.871Z,10.38
2022-10-05T04:21:36.807Z,10.40
2022-10-05T04:22:43.239Z,10.40
2022-10-05T04:23:37.720Z,10.38
2022-10-05T04:24:38.873Z,10.40
2022-10-05T04:25:37.738Z,10.40
2022-10-05T04:26:36.838Z,10.38
2022-10-05T04:27:43.825Z,10.38
2022-10-05T04:28:36.657Z,10.40
2022-10-05T04:29:36.499Z,10.41
2022-10-05T04:30:36.693Z,10.41
2022-10-05T04:31:59.667Z,10.41
2022-10-05T04:32:43.743Z,10.44
2022-10-05T04:33:37.509Z,10.42
2022-10-05T04:34:36.790Z,10.44
2022-10-05T04:35:37.668Z,10.44
2022-10-05T04:36:36.658Z,10.44
2022-10-05T04:37:37.073Z,10.42
2022-10-05T04:38:43.898Z,10.44
2022-10-05T04:39:37.280Z,10.46
2022-10-05T04:40:36.428Z,10.44
2022-10-05T04:41:36.285Z,10.44
2022-10-05T04:42:36.828Z,10.48
2022-10-05T04:43:36.290Z,10.48
2022-10-05T04:44:42.929Z,10.48
2022-10-05T04:45:36.926Z,10.48
2022-10-05T04:46:37.309Z,10.49
2022-10-05T04:47:38.545Z,10.49
2022-10-05T04:48:36.268Z,10.51
2022-10-05T04:49:42.826Z,10.53
2022-10-05T04:50:36.321Z,10.49
2022-10-05T04:51:58.729Z,10.51
2022-10-05T04:52:36.260Z,10.51
2022-10-05T04:53:37.196Z,10.49
2022-10-05T04:54:36.254Z,10.49
2022-10-05T04:55:58.090Z,10.51
2022-10-05T04:56:36.458Z,10.51
2022-10-05T04:57:36.589Z,10.53
2022-10-05T04:58:41.435Z,10.51
2022-10-05T04:59:39.449Z,10.53
2022-10-05T05:00:42.881Z,10.53
2022-10-05T05:01:42.464Z,10.53
2022-10-05T05:02:37.254Z,10.51
2022-10-05T05:03:36.241Z,10.51
2022-10-05T05:04:37.108Z,10.51
2022-10-05T05:05:44.559Z,10.53
2022-10-05T05:06:37.874Z,10.51
2022-10-05T05:07:43.581Z,10.49
2022-10-05T05:08:35.988Z,10.48
2022-10-05T05:09:36.008Z,10.49
2022-10-05T05:10:35.970Z,10.49
2022-10-05T05:11:36.221Z,10.46
2022-10-05T05:12:43.422Z,10.48
2022-10-05T05:13:36.778Z,10.46
2022-10-05T05:14:35.881Z,10.48
2022-10-05T05:15:36.513Z,10.49
2022-10-05T05:16:36.154Z,10.49
2022-10-05T05:17:42.257Z,10.49
2022-10-05T05:18:35.824Z,10.51
2022-10-05T05:19:35.869Z,10.51
2022-10-05T05:20:35.934Z,10.49
2022-10-05T05:21:36.921Z,10.51
2022-10-05T05:22:36.824Z,10.51
2022-10-05T05:23:42.085Z,10.53
2022-10-05T05:24:36.511Z,10.53
2022-10-05T05:25:35.824Z,10.53
2022-10-05T05:26:45.398Z,10.53
2022-10-05T05:27:37.322Z,10.53
2022-10-05T05:28:35.870Z,10.53
2022-10-05T05:29:42.300Z,10.56
2022-10-05T05:30:35.744Z,10.54
2022-10-05T05:31:36.347Z,10.56
2022-10-05T05:32:38.438Z,10.56
2022-10-05T05:33:36.815Z,10.57
2022-10-05T05:34:35.968Z,10.56
2022-10-05T05:35:45.963Z,10.57
2022-10-05T05:36:36.613Z,10.59
2022-10-05T05:37:35.758Z,10.60
2022-10-05T05:38:36.747Z,10.61
2022-10-05T05:39:35.615Z,10.60
2022-10-05T05:40:41.974Z,10.61
2022-10-05T05:41:35.572Z,10.63
2022-10-05T05:42:57.352Z,10.61
2022-10-05T05:43:35.492Z,10.63
2022-10-05T05:44:38.809Z,10.61
2022-10-05T05:45:41.812Z,10.63
2022-10-05T05:47:01.844Z,10.63
2022-10-05T05:47:36.524Z,10.64
2022-10-05T05:48:35.447Z,10.63
2022-10-05T05:49:35.406Z,10.64
2022-10-05T05:50:41.711Z,10.67
2022-10-05T05:51:56.482Z,10.68
2022-10-05T05:52:35.701Z,10.68
2022-10-05T05:53:35.393Z,10.71
2022-10-05T05:54:35.598Z,10.69
2022-10-05T05:56:19.107Z,10.72
2022-10-05T05:57:19.157Z,10.74
2022-10-05T05:58:21.478Z,10.74
2022-10-05T05:59:19.039Z,10.74
2022-10-05T06:00:25.661Z,10.74
2022-10-05T06:01:32.225Z,10.74
2022-10-05T06:02:20.712Z,10.74
2022-10-05T06:03:19.132Z,10.76
2022-10-05T06:04:19.078Z,10.76
2022-10-05T06:05:19.305Z,10.78
2022-10-05T06:06:25.867Z,10.79
2022-10-05T06:07:18.958Z,10.79
2022-10-05T06:08:40.013Z,10.79
2022-10-05T06:09:19.993Z,10.79
2022-10-05T06:10:18.930Z,10.81
2022-10-05T06:11:25.238Z,10.82
2022-10-05T06:12:18.953Z,10.84
2022-10-05T06:13:18.920Z,10.84
2022-10-05T06:14:18.864Z,10.87
2022-10-05T06:15:18.875Z,10.87
2022-10-05T06:16:18.953Z,10.89
2022-10-05T06:17:25.440Z,10.89
2022-10-05T06:18:18.835Z,10.90
2022-10-05T06:19:18.806Z,10.90
2022-10-05T06:20:19.024Z,10.93
2022-10-05T06:21:18.832Z,10.94
2022-10-05T06:22:25.492Z,10.96
2022-10-05T06:23:19.027Z,10.96
2022-10-05T06:24:18.853Z,10.97
2022-10-05T06:25:19.412Z,10.99
2022-10-05T06:26:19.694Z,11.00
2022-10-05T06:27:25.991Z,11.02
2022-10-05T06:28:18.756Z,11.05
2022-10-05T06:29:18.774Z,11.05
2022-10-05T06:30:18.694Z,11.07
2022-10-05T06:31:18.803Z,11.08
2022-10-05T06:32:18.681Z,11.08
2022-10-05T06:33:24.982Z,11.10
2022-10-05T06:34:18.677Z,11.12
2022-10-05T06:35:18.631Z,11.15
2022-10-05T06:36:19.191Z,11.15
2022-10-05T06:37:20.401Z,11.17
2022-10-05T06:38:18.592Z,11.19
2022-10-05T06:39:24.892Z,11.19
2022-10-05T06:40:18.560Z,11.22
2022-10-05T06:41:18.577Z,11.25
2022-10-05T06:42:18.570Z,11.25
2022-10-05T06:43:18.554Z,11.27
2022-10-05T06:44:28.710Z,11.29
2022-10-05T06:45:18.574Z,11.30
2022-10-05T06:46:18.574Z,11.32
2022-10-05T06:47:18.476Z,11.33
2022-10-05T06:48:18.475Z,11.33
2022-10-05T06:49:18.445Z,11.33
2022-10-05T06:50:24.711Z,11.36
2022-10-05T06:51:18.451Z,11.36
2022-10-05T06:52:18.484Z,11.37
2022-10-05T06:53:18.422Z,11.40
2022-10-05T06:54:18.434Z,11.40
2022-10-05T06:55:18.374Z,11.41
2022-10-05T06:56:24.705Z,11.43
2022-10-05T06:57:18.825Z,11.44
2022-10-05T06:58:18.346Z,11.45
2022-10-05T06:59:18.429Z,11.47
2022-10-05T07:00:18.336Z,11.50
2022-10-05T07:01:25.040Z,11.51
2022-10-05T07:02:18.442Z,11.54
2022-10-05T07:03:18.613Z,11.57
2022-10-05T07:04:18.314Z,11.59
2022-10-05T07:05:18.316Z,11.59
2022-10-05T07:06:18.228Z,11.62
2022-10-05T07:07:25.561Z,11.63
2022-10-05T07:08:18.664Z,11.65
2022-10-05T07:09:18.190Z,11.66
2022-10-05T07:10:18.303Z,11.66
2022-10-05T07:11:18.150Z,11.68
2022-10-05T07:12:18.239Z,11.68
2022-10-05T07:13:24.440Z,11.69
2022-10-05T07:14:18.182Z,11.68
2022-10-05T07:15:18.193Z,11.70
2022-10-05T07:16:18.413Z,11.69
2022-10-05T07:17:18.175Z,11.69
2022-10-05T07:18:18.061Z,11.70
2022-10-05T07:19:24.369Z,11.72
2022-10-05T07:20:18.076Z,11.73
2022-10-05T07:21:18.141Z,11.73
2022-10-05T07:22:18.153Z,11.75
2022-10-05T07:23:18.961Z,11.75
2022-10-05T07:24:24.309Z,11.77
2022-10-05T07:25:17.997Z,11.77
2022-10-05T07:26:18.002Z,11.78
2022-10-05T07:27:18.079Z,11.77
2022-10-05T07:28:18.149Z,11.78
2022-10-05T07:29:24.741Z,11.80
2022-10-05T07:30:17.982Z,11.81
2022-10-05T07:31:18.074Z,11.81
2022-10-05T07:32:17.992Z,11.83
2022-10-05T07:33:17.903Z,11.84
2022-10-05T07:34:17.884Z,11.86
2022-10-05T07:35:24.170Z,11.87
2022-10-05T07:36:17.867Z,11.88
2022-10-05T07:37:17.864Z,11.90
2022-10-05T07:38:17.807Z,11.94
2022-10-05T07:39:17.831Z,11.97
2022-10-05T07:40:24.101Z,12.00
2022-10-05T07:41:17.830Z,12.03
2022-10-05T07:42:17.779Z,12.06
2022-10-05T07:43:17.773Z,12.10
2022-10-05T07:44:17.927Z,12.13
2022-10-05T07:45:24.068Z,12.17
2022-10-05T07:46:17.732Z,12.20
2022-10-05T07:47:17.724Z,12.22
2022-10-05T07:48:17.671Z,12.25
2022-10-05T07:49:17.677Z,12.29
2022-10-05T07:50:17.668Z,12.32
2022-10-05T07:51:23.938Z,12.36
2022-10-05T07:52:17.672Z,12.39
2022-10-05T07:53:17.632Z,12.40
2022-10-05T07:54:17.633Z,12.45
2022-10-05T07:55:18.503Z,12.46
2022-10-05T07:56:23.908Z,12.49
2022-10-05T07:57:17.626Z,12.53
2022-10-05T07:58:17.621Z,12.55
2022-10-05T07:59:18.584Z,12.55
2022-10-05T08:00:17.538Z,12.60
2022-10-05T08:01:17.558Z,12.61
2022-10-05T08:02:25.888Z,12.64
2022-10-05T08:03:17.859Z,12.67
2022-10-05T08:04:17.579Z,12.70
2022-10-05T08:05:17.530Z,12.73
2022-10-05T08:06:18.238Z,12.75
2022-10-05T08:07:17.544Z,12.76
2022-10-05T08:08:23.782Z,12.79
2022-10-05T08:09:17.498Z,12.80
2022-10-05T08:10:17.890Z,12.85
2022-10-05T08:11:17.441Z,12.85
2022-10-05T08:12:17.457Z,12.87
2022-10-05T08:13:24.071Z,12.93
2022-10-05T08:14:17.455Z,12.98
2022-10-05T08:15:17.391Z,13.03
2022-10-05T08:16:17.577Z,13.05
2022-10-05T08:17:18.591Z,13.08
2022-10-05T08:18:18.257Z,13.11
2022-10-05T08:19:23.997Z,13.15
2022-10-05T08:20:17.329Z,13.18
2022-10-05T08:21:17.356Z,13.22
2022-10-05T08:22:17.317Z,13.22
2022-10-05T08:23:18.395Z,13.25
2022-10-05T08:24:17.339Z,13.28
2022-10-05T08:25:23.646Z,13.30
2022-10-05T08:26:17.530Z,13.33
2022-10-05T08:27:17.340Z,13.37
2022-10-05T08:28:17.623Z,13.41
2022-10-05T08:29:24.352Z,13.42
2022-10-05T08:30:24.698Z,13.46
2022-10-05T08:31:17.530Z,13.46
2022-10-05T08:32:17.561Z,13.50
2022-10-05T08:33:17.113Z,13.53
2022-10-05T08:34:17.840Z,13.54
2022-10-05T08:35:17.405Z,13.56
2022-10-05T08:36:25.326Z,13.57
2022-10-05T08:37:17.256Z,13.60
2022-10-05T08:38:18.436Z,13.62
2022-10-05T08:39:17.189Z,13.60
2022-10-05T08:40:17.421Z,13.67
2022-10-05T08:41:24.362Z,13.67
2022-10-05T08:42:17.224Z,13.70
2022-10-05T08:43:17.419Z,13.71
2022-10-05T08:44:18.109Z,13.75
2022-10-05T08:45:17.243Z,13.78
2022-10-05T08:46:18.113Z,13.79
2022-10-05T08:47:24.614Z,13.85
2022-10-05T08:48:17.495Z,13.86
2022-10-05T08:49:17.094Z,13.86
2022-10-05T08:50:17.232Z,13.89
2022-10-05T08:51:17.004Z,13.93
2022-10-05T08:52:18.081Z,13.93
2022-10-05T08:53:23.598Z,13.96
2022-10-05T08:54:17.260Z,13.96
2022-10-05T08:55:16.927Z,13.97
2022-10-05T08:56:20.844Z,13.97
2022-10-05T08:57:17.321Z,14.04
2022-10-05T08:58:24.403Z,14.07
2022-10-05T08:59:16.927Z,14.08
2022-10-05T09:00:18.262Z,14.10
2022-10-05T09:01:16.874Z,14.11
2022-10-05T09:02:16.907Z,14.17
2022-10-05T09:03:23.160Z,14.20
2022-10-05T09:04:23.122Z,14.22
2022-10-05T09:05:17.195Z,14.26
2022-10-05T09:06:38.675Z,14.28
2022-10-05T09:07:17.758Z,14.33
2022-10-05T09:08:24.291Z,14.37
2022-10-05T09:09:18.776Z,14.41
2022-10-05T09:10:17.371Z,14.44
2022-10-05T09:11:16.745Z,14.47
2022-10-05T09:12:17.698Z,14.50
2022-10-05T09:13:17.169Z,14.53
2022-10-05T09:14:23.219Z,14.55
2022-10-05T09:15:31.779Z,14.60
2022-10-05T09:16:19.077Z,14.63
2022-10-05T09:17:18.498Z,14.66
2022-10-05T09:18:17.531Z,14.68
2022-10-05T09:19:16.629Z,14.70
2022-10-05T09:20:23.161Z,14.77
2022-10-05T09:21:18.588Z,14.73
2022-10-05T09:22:17.981Z,14.78
2022-10-05T09:23:16.656Z,14.81
2022-10-05T09:24:16.480Z,14.85
2022-10-05T09:25:16.590Z,14.86
2022-10-05T09:26:23.118Z,14.88
2022-10-05T09:27:16.659Z,14.89
2022-10-05T09:28:17.733Z,14.99
2022-10-05T09:29:16.518Z,15.03
2022-10-05T09:30:16.457Z,15.06
2022-10-05T09:31:17.601Z,15.11
2022-10-05T09:32:22.879Z,15.15
2022-10-05T09:33:17.477Z,15.18
2022-10-05T09:34:16.997Z,15.17
2022-10-05T09:35:16.965Z,15.14
2022-10-05T09:36:17.443Z,15.15
2022-10-05T09:37:22.991Z,15.17
2022-10-05T09:38:17.263Z,15.18
2022-10-05T09:39:20.479Z,15.21
2022-10-05T09:40:17.566Z,15.25
2022-10-05T09:41:16.602Z,15.28
2022-10-05T09:42:16.981Z,15.31
2022-10-05T09:43:23.843Z,15.36
2022-10-05T09:44:16.882Z,15.35
2022-10-05T09:45:21.211Z,15.36
2022-10-05T09:46:17.433Z,15.35
2022-10-05T09:47:16.619Z,15.36
2022-10-05T09:48:23.796Z,15.40
2022-10-05T09:49:22.489Z,15.42
2022-10-05T09:50:18.032Z,15.46
2022-10-05T09:51:17.180Z,15.51
2022-10-05T09:52:18.931Z,15.51
2022-10-05T09:53:25.976Z,15.51
2022-10-05T09:54:16.460Z,15.52
2022-10-05T09:55:16.135Z,15.55
2022-10-05T09:56:17.359Z,15.57
2022-10-05T09:57:16.237Z,15.59
2022-10-05T09:58:16.427Z,15.59
2022-10-05T09:59:24.584Z,15.62
2022-10-05T10:00:16.197Z,15.67
2022-10-05T10:01:32.742Z,15.72
2022-10-05T10:02:17.910Z,15.72
2022-10-05T10:03:16.279Z,15.73
2022-10-05T10:04:22.720Z,15.72
2022-10-05T10:05:18.500Z,15.73
2022-10-05T10:06:16.058Z,15.75
2022-10-05T10:07:16.277Z,15.73
2022-10-05T10:08:15.976Z,15.75
2022-10-05T10:09:23.502Z,15.73
2022-10-05T10:10:17.027Z,15.72
2022-10-05T10:11:19.037Z,15.68
2022-10-05T10:12:16.004Z,15.64
2022-10-05T10:13:16.173Z,15.62
2022-10-05T10:14:15.988Z,15.57
2022-10-05T10:15:22.171Z,15.57
2022-10-05T10:16:16.033Z,15.57
2022-10-05T10:17:15.847Z,15.59
2022-10-05T10:18:15.841Z,15.61
2022-10-05T10:19:15.765Z,15.62
2022-10-05T10:20:16.084Z,15.64
2022-10-05T10:21:24.769Z,15.62
2022-10-05T10:22:16.213Z,15.62
2022-10-05T10:23:15.692Z,15.61
2022-10-05T10:24:16.827Z,15.64
2022-10-05T10:25:17.127Z,15.64
2022-10-05T10:26:15.722Z,15.67
2022-10-05T10:27:22.063Z,15.67
2022-10-05T10:28:15.732Z,15.68
2022-10-05T10:29:15.718Z,15.70
2022-10-05T10:30:15.763Z,15.70
2022-10-05T10:31:16.611Z,15.73
2022-10-05T10:32:24.970Z,15.73
2022-10-05T10:33:15.619Z,15.75
2022-10-05T10:34:16.629Z,15.76
2022-10-05T10:35:15.733Z,15.77
2022-10-05T10:36:16.721Z,15.80
2022-10-05T10:37:16.026Z,15.80
2022-10-05T10:38:23.309Z,15.82
2022-10-05T10:39:15.849Z,15.83
2022-10-05T10:40:15.598Z,15.84
2022-10-05T10:41:16.302Z,15.84
2022-10-05T10:42:15.522Z,15.86
2022-10-05T10:43:15.833Z,15.90
2022-10-05T10:44:22.122Z,15.92
2022-10-05T10:45:15.842Z,15.95
2022-10-05T10:46:15.583Z,15.97
2022-10-05T10:47:15.592Z,15.98
2022-10-05T10:48:15.445Z,16.00
2022-10-05T10:49:15.392Z,16.02
2022-10-05T10:50:21.688Z,16.04
2022-10-05T10:51:15.454Z,16.05
2022-10-05T10:52:15.390Z,16.08
2022-10-05T10:53:15.474Z,16.12
2022-10-05T10:54:15.495Z,16.13
2022-10-05T10:55:21.661Z,16.10
2022-10-05T10:56:15.598Z,16.13
2022-10-05T10:57:15.314Z,16.15
2022-10-05T10:58:16.358Z,16.13
2022-10-05T10:59:15.260Z,16.16
2022-10-05T11:00:15.271Z,16.21
2022-10-05T11:01:21.604Z,16.24
2022-10-05T11:02:15.287Z,16.24
2022-10-05T11:03:15.246Z,16.29
2022-10-05T11:04:19.366Z,16.31
2022-10-05T11:05:16.041Z,16.31
2022-10-05T11:06:16.795Z,16.32
2022-10-05T11:07:21.536Z,16.35
2022-10-05T11:08:15.938Z,16.35
2022-10-05T11:09:15.142Z,16.38
2022-10-05T11:10:15.285Z,16.39
2022-10-05T11:11:22.594Z,16.41
2022-10-05T11:12:15.221Z,16.42
2022-10-05T11:13:21.371Z,16.42
2022-10-05T11:14:15.185Z,16.49
2022-10-05T11:15:15.211Z,16.51
2022-10-05T11:16:18.809Z,16.56
2022-10-05T11:17:15.391Z,16.58
2022-10-05T11:18:14.990Z,16.65
2022-10-05T11:19:21.707Z,16.71
2022-10-05T11:20:15.989Z,16.74
2022-10-05T11:21:16.151Z,16.81
2022-10-05T11:22:15.131Z,16.87
2022-10-05T11:23:15.047Z,16.94
2022-10-05T11:24:14.984Z,17.02
2022-10-05T11:25:21.392Z,17.11
2022-10-05T11:26:15.012Z,17.19
2022-10-05T11:27:15.283Z,17.29
2022-10-05T11:28:15.142Z,17.38
2022-10-05T11:29:16.173Z,17.46
2022-10-05T11:30:15.090Z,17.54
2022-10-05T11:31:21.256Z,17.59
2022-10-05T11:32:15.971Z,17.57
2022-10-05T11:33:14.888Z,17.56
2022-10-05T11:34:15.894Z,17.57
2022-10-05T11:35:15.992Z,17.60
2022-10-05T11:36:14.932Z,17.57
2022-10-05T11:37:21.170Z,17.49
2022-10-05T11:38:15.338Z,17.45
2022-10-05T11:39:15.072Z,17.41
2022-10-05T11:40:14.780Z,17.48
2022-10-05T11:41:14.703Z,17.52
2022-10-05T11:42:21.157Z,17.56
2022-10-05T11:43:14.720Z,17.57
2022-10-05T11:44:14.758Z,17.63
2022-10-05T11:45:15.798Z,17.65
2022-10-05T11:46:15.807Z,17.67
2022-10-05T11:47:21.038Z,17.68
2022-10-05T11:48:14.664Z,17.67
2022-10-05T11:49:15.737Z,17.65
2022-10-05T11:50:14.647Z,17.71
2022-10-05T11:51:14.908Z,17.71
2022-10-05T11:52:14.666Z,17.74
2022-10-05T11:53:21.888Z,17.76
2022-10-05T11:54:14.537Z,17.78
2022-10-05T11:55:14.738Z,17.82
2022-10-05T11:56:14.490Z,17.79
2022-10-05T11:57:14.571Z,17.80
2022-10-05T11:58:21.479Z,17.83
2022-10-05T11:59:14.660Z,17.87
2022-10-05T12:00:14.697Z,17.90
2022-10-05T12:01:14.548Z,17.94
2022-10-05T12:02:15.260Z,17.94
2022-10-05T12:03:20.914Z,17.95
2022-10-05T12:04:14.623Z,17.95
2022-10-05T12:05:15.495Z,17.87
2022-10-05T12:06:14.761Z,17.85
2022-10-05T12:07:14.518Z,17.82
2022-10-05T12:08:14.386Z,17.80
2022-10-05T12:09:21.171Z,17.79
2022-10-05T12:10:14.423Z,17.79
2022-10-05T12:11:14.922Z,17.78
2022-10-05T12:12:14.325Z,17.80
2022-10-05T12:13:14.448Z,17.82
2022-10-05T12:14:14.325Z,17.83
2022-10-05T12:15:20.646Z,17.86
2022-10-05T12:16:15.610Z,17.89
2022-10-05T12:17:14.286Z,17.92
2022-10-05T12:18:14.405Z,17.97
2022-10-05T12:19:14.351Z,17.97
2022-10-05T12:20:20.560Z,18.03
2022-10-05T12:21:14.329Z,18.10
2022-10-05T12:22:14.188Z,18.19
2022-10-05T12:23:15.715Z,18.26
2022-10-05T12:24:14.489Z,18.34
2022-10-05T12:25:20.495Z,18.44
2022-10-05T12:26:15.223Z,18.53
2022-10-05T12:27:14.176Z,18.55
2022-10-05T12:28:14.521Z,18.58
2022-10-05T12:29:14.075Z,18.58
2022-10-05T12:30:20.377Z,18.60
2022-10-05T12:31:14.261Z,18.63
2022-10-05T12:32:14.131Z,18.70
2022-10-05T12:33:14.473Z,18.80
2022-10-05T12:34:14.010Z,18.86
2022-10-05T12:35:29.729Z,18.92
2022-10-05T12:36:21.656Z,18.96
2022-10-05T12:37:16.548Z,19.02
2022-10-05T12:38:14.632Z,19.11
2022-10-05T12:39:15.732Z,19.21
2022-10-05T12:40:17.497Z,19.33
2022-10-05T12:41:14.110Z,19.47
2022-10-05T12:42:21.022Z,19.64
2022-10-05T12:43:14.225Z,19.95
2022-10-05T12:44:14.899Z,20.31
2022-10-05T12:45:14.428Z,20.82
2022-10-05T12:46:16.606Z,21.40
2022-10-05T12:47:20.358Z,21.95
2022-10-05T12:48:14.658Z,22.48
2022-10-05T12:49:20.307Z,22.68
2022-10-05T12:50:20.736Z,22.94
2022-10-05T12:51:14.178Z,23.20
2022-10-05T12:52:14.758Z,23.59
2022-10-05T12:53:21.358Z,23.86
2022-10-05T12:54:14.211Z,24.01